Time;durP1;ratioP1;P1;durP2;ratioP2;P2;SDS_P1;SDS_P2;PMS_P1;PMS_P2;Temp;Humidity;BMP_temperature;BMP_pressure;BME280_temperature;BME280_humidity;BME280_pressure;Samples;Min_cycle;Max_cycle;Signal;HPM_P1;HPM_P2
2022/05/28 00:01:11;;;;;;;10.67;2.07;;;10.70;99.90;;;;;;4993632;28;20198;-82
2022/05/28 00:03:37;;;;;;;10.87;2.37;;;10.80;99.90;;;;;;4994405;28;20628;-82
2022/05/28 00:06:09;;;;;;;8.77;2.27;;;10.70;99.90;;;;;;4994307;28;20540;-82
2022/05/28 00:08:34;;;;;;;11.33;1.90;;;10.70;99.90;;;;;;4993358;28;20183;-83
2022/05/28 00:11:00;;;;;;;21.33;2.83;;;10.60;99.90;;;;;;4993605;28;20195;-83
2022/05/28 00:13:26;;;;;;;15.53;2.57;;;10.70;99.90;;;;;;4993803;28;20694;-82
2022/05/28 00:15:52;;;;;;;11.87;2.30;;;10.50;99.90;;;;;;4993627;28;20781;-83
2022/05/28 00:18:18;;;;;;;12.57;2.20;;;10.50;99.90;;;;;;4993729;28;20312;-82
2022/05/28 00:20:43;;;;;;;12.57;2.60;;;10.60;99.90;;;;;;4993456;28;20493;-82
2022/05/28 00:23:09;;;;;;;8.03;2.37;;;10.60;99.90;;;;;;4993452;28;20655;-82
2022/05/28 00:25:35;;;;;;;23.30;3.57;;;10.60;99.90;;;;;;4993275;28;20178;-82
2022/05/28 00:28:01;;;;;;;15.93;2.57;;;10.50;99.90;;;;;;4993234;28;20697;-82
2022/05/28 00:30:27;;;;;;;11.07;2.53;;;10.50;99.90;;;;;;4993297;28;20203;-83
2022/05/28 00:32:52;;;;;;;15.83;2.33;;;10.50;99.90;;;;;;4992871;28;20171;-83
2022/05/28 00:35:19;;;;;;;15.17;3.07;;;10.60;99.90;;;;;;4992875;28;20188;-82
2022/05/28 00:37:46;;;;;;;12.50;2.90;;;10.50;99.90;;;;;;4993095;28;20206;-82
2022/05/28 00:40:22;;;;;;;13.27;2.83;;;10.40;99.90;;;;;;4993042;28;20180;-82
2022/05/28 00:42:48;;;;;;;14.47;2.43;;;10.40;99.90;;;;;;4992717;28;20183;-83
2022/05/28 00:45:14;;;;;;;26.47;3.37;;;10.40;99.90;;;;;;4993019;28;20178;-83
2022/05/28 00:47:46;;;;;;;18.00;2.60;;;10.40;99.90;;;;;;4992722;28;20234;-83
2022/05/28 00:50:13;;;;;;;15.43;2.83;;;10.40;99.90;;;;;;4994183;28;20170;-82
2022/05/28 00:52:40;;;;;;;19.03;2.70;;;10.30;99.90;;;;;;4992826;28;20172;-83
2022/05/28 00:55:06;;;;;;;12.37;2.63;;;10.30;99.90;;;;;;4992821;28;20179;-83
2022/05/28 00:57:32;;;;;;;18.90;2.93;;;10.30;99.90;;;;;;4992412;28;20193;-83
2022/05/28 00:59:58;;;;;;;11.30;2.07;;;10.20;99.90;;;;;;4992646;28;20176;-82
2022/05/28 01:02:46;;;;;;;13.30;2.30;;;10.30;99.90;;;;;;4992785;28;20198;-83
2022/05/28 01:05:31;;;;;;;14.53;2.27;;;10.30;99.90;;;;;;4992672;28;20178;-82
2022/05/28 01:08:15;;;;;;;10.30;2.30;;;10.30;99.90;;;;;;4992878;28;20175;-82
2022/05/28 01:11:20;;;;;;;15.60;2.40;;;10.30;99.90;;;;;;4992364;28;20662;-82
2022/05/28 01:13:57;;;;;;;15.87;2.73;;;10.30;99.90;;;;;;4975691;28;20183;-82
2022/05/28 01:16:32;;;;;;;18.23;2.90;;;10.20;99.90;;;;;;4992232;28;20225;-82
2022/05/28 01:19:10;;;;;;;13.40;2.50;;;10.30;99.90;;;;;;4991690;28;20261;-82
2022/05/28 01:22:05;;;;;;;10.03;2.30;;;10.30;99.90;;;;;;4991703;28;20200;-82
2022/05/28 01:24:44;;;;;;;12.03;2.73;;;10.20;99.90;;;;;;4991963;28;20254;-83
2022/05/28 01:27:21;;;;;;;18.67;2.87;;;10.30;99.90;;;;;;4992020;28;20579;-82
2022/05/28 01:29:52;;;;;;;17.37;2.80;;;10.30;99.90;;;;;;4991868;28;20567;-83
2022/05/28 01:32:20;;;;;;;16.60;2.77;;;10.20;99.90;;;;;;4991673;28;20190;-83
2022/05/28 01:34:47;;;;;;;13.20;2.93;;;10.30;99.90;;;;;;4991321;28;20179;-83
2022/05/28 01:37:14;;;;;;;13.07;3.00;;;10.40;99.90;;;;;;4991905;28;20209;-82
2022/05/28 01:39:43;;;;;;;10.83;2.30;;;10.50;99.90;;;;;;4991704;28;20217;-82
2022/05/28 01:42:10;;;;;;;16.77;2.40;;;10.60;99.90;;;;;;4991534;28;20201;-83
2022/05/28 01:44:38;;;;;;;12.17;2.57;;;10.70;99.90;;;;;;4991752;28;20179;-82
2022/05/28 01:47:04;;;;;;;12.77;3.23;;;10.60;99.90;;;;;;4991804;28;20574;-82
2022/05/28 01:49:30;;;;;;;8.90;2.50;;;10.60;99.90;;;;;;4991620;28;20182;-83
2022/05/28 01:52:00;;;;;;;9.83;2.73;;;10.60;99.90;;;;;;4991435;28;20242;-82
2022/05/28 01:54:30;;;;;;;12.67;2.17;;;10.50;99.90;;;;;;4991796;28;20266;-82
2022/05/28 01:56:57;;;;;;;17.53;2.50;;;10.50;99.90;;;;;;4991536;28;20633;-82
2022/05/28 01:59:25;;;;;;;9.97;2.33;;;10.60;99.90;;;;;;4991500;28;20545;-83
2022/05/28 02:01:52;;;;;;;9.27;2.30;;;10.60;99.90;;;;;;4990713;28;20191;-82
2022/05/28 02:04:25;;;;;;;16.83;3.23;;;10.60;99.90;;;;;;4991320;28;20179;-83
2022/05/28 02:06:51;;;;;;;14.47;3.13;;;10.60;99.90;;;;;;4991508;28;20174;-83
2022/05/28 02:09:22;;;;;;;17.37;2.60;;;10.60;99.90;;;;;;4991284;28;20175;-82
2022/05/28 02:12:13;;;;;;;16.33;2.63;;;10.60;99.90;;;;;;4990895;28;20193;-83
2022/05/28 02:14:57;;;;;;;9.40;3.00;;;10.70;99.90;;;;;;4991524;28;20188;-82
2022/05/28 02:17:35;;;;;;;14.93;2.70;;;10.70;99.90;;;;;;4991621;28;20183;-82
2022/05/28 02:20:07;;;;;;;13.13;2.47;;;10.70;99.90;;;;;;4991693;28;20272;-82
2022/05/28 02:22:57;;;;;;;10.63;2.10;;;10.80;99.90;;;;;;4991513;28;20184;-81
2022/05/28 02:25:51;;;;;;;9.27;2.20;;;10.90;99.90;;;;;;4991371;28;20176;-82
2022/05/28 02:28:17;;;;;;;16.33;2.70;;;10.90;99.90;;;;;;4991577;28;20203;-82
2022/05/28 02:30:52;;;;;;;10.87;2.63;;;10.90;99.90;;;;;;4992164;28;20611;-82
2022/05/28 02:33:19;;;;;;;12.43;2.77;;;10.90;99.90;;;;;;4994858;28;20635;-83
2022/05/28 02:35:45;;;;;;;11.67;3.00;;;10.90;99.90;;;;;;4995087;28;20205;-82
2022/05/28 02:38:12;;;;;;;10.10;2.93;;;10.90;99.90;;;;;;4995272;28;20702;-82
2022/05/28 02:40:38;;;;;;;9.57;2.70;;;10.80;99.90;;;;;;4995188;28;20255;-83
2022/05/28 02:43:04;;;;;;;10.70;2.37;;;10.80;99.90;;;;;;4994790;28;20171;-82
2022/05/28 02:45:30;;;;;;;12.03;2.50;;;10.80;99.90;;;;;;4996261;28;20183;-84
2022/05/28 02:47:56;;;;;;;13.07;2.30;;;10.80;99.90;;;;;;4995109;28;20596;-82
2022/05/28 02:50:24;;;;;;;12.53;2.57;;;10.90;99.90;;;;;;4994874;28;20719;-82
2022/05/28 02:52:49;;;;;;;8.30;2.50;;;10.90;99.90;;;;;;4994890;28;20185;-83
2022/05/28 02:55:15;;;;;;;13.23;2.97;;;10.90;99.90;;;;;;4995053;28;20268;-82
2022/05/28 02:57:41;;;;;;;10.93;2.77;;;10.80;99.90;;;;;;4994887;28;20194;-82
2022/05/28 03:00:07;;;;;;;14.23;2.90;;;10.80;99.90;;;;;;4994830;28;20172;-82
2022/05/28 03:02:33;;;;;;;16.17;2.67;;;10.80;99.90;;;;;;4995385;28;20171;-83
2022/05/28 03:04:59;;;;;;;12.83;2.37;;;10.80;99.90;;;;;;4995482;28;20266;-82
2022/05/28 03:07:24;;;;;;;15.03;2.50;;;10.80;99.90;;;;;;4995350;28;20174;-82
2022/05/28 03:09:50;;;;;;;16.43;2.90;;;10.70;99.90;;;;;;4994813;28;20206;-82
2022/05/28 03:12:17;;;;;;;15.93;2.80;;;10.70;99.90;;;;;;4994044;28;20246;-82
2022/05/28 03:14:42;;;;;;;7.33;2.57;;;10.70;99.90;;;;;;4994637;28;20176;-83
2022/05/28 03:17:08;;;;;;;10.10;2.57;;;10.70;99.90;;;;;;4994510;28;20182;-83
2022/05/28 03:19:34;;;;;;;20.50;2.63;;;10.60;99.90;;;;;;4994670;28;20207;-82
2022/05/28 03:21:59;;;;;;;8.67;2.40;;;10.60;99.90;;;;;;4994586;28;20195;-82
2022/05/28 03:24:25;;;;;;;9.93;2.40;;;10.70;99.90;;;;;;4994643;28;20175;-82
2022/05/28 03:26:52;;;;;;;8.20;2.27;;;10.60;99.90;;;;;;4994395;28;20538;-82
2022/05/28 03:29:18;;;;;;;15.23;2.43;;;10.60;99.90;;;;;;5027427;28;20180;-82
2022/05/28 03:31:44;;;;;;;10.33;2.40;;;10.60;99.90;;;;;;4994321;28;20271;-82
2022/05/28 03:34:10;;;;;;;13.47;2.50;;;10.50;99.90;;;;;;4993958;28;20179;-82
2022/05/28 03:36:35;;;;;;;7.63;2.57;;;10.50;99.90;;;;;;4994285;28;20190;-82
2022/05/28 03:39:02;;;;;;;13.97;2.57;;;10.50;99.90;;;;;;4995675;28;20203;-82
2022/05/28 03:41:28;;;;;;;13.00;2.37;;;10.50;99.90;;;;;;4993727;28;20274;-83
2022/05/28 03:43:55;;;;;;;8.80;2.20;;;10.50;99.90;;;;;;4994584;28;20583;-83
2022/05/28 03:46:29;;;;;;;11.27;2.60;;;10.40;99.90;;;;;;4994753;28;20179;-83
2022/05/28 03:49:03;;;;;;;8.57;2.07;;;10.40;99.90;;;;;;4994478;28;20177;-83
2022/05/28 03:51:30;;;;;;;6.33;2.20;;;10.30;99.90;;;;;;4994421;28;20291;-84
2022/05/28 03:53:55;;;;;;;9.47;2.40;;;10.30;99.90;;;;;;4994516;28;20179;-82
2022/05/28 03:56:23;;;;;;;12.17;2.33;;;10.40;99.90;;;;;;4994106;28;20587;-83
2022/05/28 03:58:50;;;;;;;8.27;2.00;;;10.40;99.90;;;;;;4994024;28;20644;-82
2022/05/28 04:01:17;;;;;;;8.03;2.23;;;10.30;99.90;;;;;;4993641;28;20321;-82
2022/05/28 04:03:42;;;;;;;11.70;2.17;;;10.40;99.90;;;;;;4993874;28;20171;-83
2022/05/28 04:06:09;;;;;;;5.30;1.87;;;10.30;99.90;;;;;;4994771;28;20172;-83
2022/05/28 04:08:35;;;;;;;14.97;2.33;;;10.30;99.90;;;;;;4994068;28;20550;-83
2022/05/28 04:11:01;;;;;;;5.80;1.97;;;10.30;99.90;;;;;;4994326;28;20246;-83
2022/05/28 04:13:26;;;;;;;10.23;2.43;;;10.30;99.90;;;;;;4994224;28;20224;-82
2022/05/28 04:15:52;;;;;;;5.83;2.57;;;10.30;99.90;;;;;;4994056;28;20182;-83
2022/05/28 04:18:18;;;;;;;13.57;2.33;;;10.30;99.90;;;;;;4994547;28;20195;-83
2022/05/28 04:20:44;;;;;;;11.63;2.30;;;10.40;99.90;;;;;;4993997;28;20230;-83
2022/05/28 04:23:10;;;;;;;13.70;2.00;;;10.40;99.90;;;;;;4994661;28;20646;-83
2022/05/28 04:25:36;;;;;;;8.77;2.00;;;10.40;99.90;;;;;;4994336;28;20194;-83
2022/05/28 04:28:02;;;;;;;13.43;2.00;;;10.40;99.90;;;;;;4994078;28;20542;-83
2022/05/28 04:30:28;;;;;;;10.17;2.13;;;10.40;99.90;;;;;;4993655;28;20191;-83
2022/05/28 04:32:54;;;;;;;3.00;1.60;;;10.50;99.90;;;;;;4993325;28;20180;-82
2022/05/28 04:35:19;;;;;;;7.67;2.13;;;10.70;99.90;;;;;;4993608;28;20225;-83
2022/05/28 04:37:45;;;;;;;8.67;2.00;;;10.70;99.90;;;;;;4992882;28;20205;-83
2022/05/28 04:40:11;;;;;;;10.80;1.90;;;10.90;99.90;;;;;;4993795;28;20182;-83
2022/05/28 04:42:37;;;;;;;11.40;1.60;;;11.20;99.90;;;;;;4993768;28;20201;-82
2022/05/28 04:45:03;;;;;;;9.50;1.50;;;11.50;99.90;;;;;;4993848;28;20168;-82
2022/05/28 04:47:29;;;;;;;10.93;1.70;;;11.70;99.90;;;;;;4993735;28;20227;-82
2022/05/28 04:49:55;;;;;;;11.17;1.60;;;11.60;99.90;;;;;;4993694;28;20489;-81
2022/05/28 04:52:22;;;;;;;7.80;1.60;;;11.90;99.90;;;;;;4993314;28;20243;-82
2022/05/28 04:54:48;;;;;;;5.90;1.67;;;12.10;99.90;;;;;;4992989;28;20267;-81
2022/05/28 04:57:14;;;;;;;7.97;1.77;;;12.10;99.90;;;;;;4993519;28;20285;-82
2022/05/28 04:59:40;;;;;;;7.47;1.67;;;12.10;99.90;;;;;;4993436;28;20290;-82
2022/05/28 05:02:07;;;;;;;11.90;1.97;;;11.90;99.90;;;;;;4993338;28;20197;-82
2022/05/28 05:04:33;;;;;;;3.00;1.60;;;11.80;99.90;;;;;;4993520;28;20545;-82
2022/05/28 05:06:59;;;;;;;8.87;1.70;;;12.00;99.90;;;;;;4993515;28;20174;-82
2022/05/28 05:09:25;;;;;;;7.73;1.50;;;11.90;99.90;;;;;;4994005;28;20180;-83
2022/05/28 05:11:50;;;;;;;4.87;1.70;;;11.90;99.90;;;;;;4992959;28;20208;-82
2022/05/28 05:14:16;;;;;;;7.23;1.40;;;12.10;99.90;;;;;;4993523;28;20180;-82
2022/05/28 05:16:41;;;;;;;6.77;1.90;;;12.40;99.90;;;;;;4993461;28;20263;-82
2022/05/28 05:19:07;;;;;;;8.13;1.70;;;12.60;99.90;;;;;;4993532;28;20293;-82
2022/05/28 05:21:33;;;;;;;7.07;1.80;;;12.70;99.90;;;;;;4993311;28;20219;-82
2022/05/28 05:23:59;;;;;;;9.17;1.50;;;12.80;99.90;;;;;;4993262;28;20186;-82
2022/05/28 05:26:24;;;;;;;7.17;2.10;;;12.60;99.90;;;;;;4993935;28;20179;-83
2022/05/28 05:28:50;;;;;;;9.60;2.07;;;12.70;99.90;;;;;;4993623;28;20211;-82
2022/05/28 05:31:16;;;;;;;10.30;1.80;;;12.80;99.90;;;;;;4993112;28;20564;-82
2022/05/28 05:33:42;;;;;;;12.07;1.90;;;12.90;99.90;;;;;;4993446;28;20179;-83
2022/05/28 05:36:09;;;;;;;9.80;1.90;;;13.00;99.90;;;;;;4993425;28;20245;-82
2022/05/28 05:38:35;;;;;;;10.67;1.83;;;13.10;99.90;;;;;;4994138;28;20607;-83
2022/05/28 05:41:01;;;;;;;3.33;1.50;;;13.30;99.90;;;;;;4994391;28;20253;-84
2022/05/28 05:43:27;;;;;;;12.90;2.00;;;13.20;99.90;;;;;;4993487;28;20274;-82
2022/05/28 05:45:54;;;;;;;6.63;1.30;;;13.20;99.90;;;;;;4995678;28;20183;-83
2022/05/28 05:48:21;;;;;;;7.43;1.67;;;13.30;99.90;;;;;;4994967;28;20167;-82
2022/05/28 05:50:47;;;;;;;7.33;1.97;;;13.40;99.90;;;;;;4994771;28;20196;-82
2022/05/28 05:53:12;;;;;;;8.73;1.57;;;13.60;99.90;;;;;;4993423;28;20175;-82
2022/05/28 05:55:38;;;;;;;8.03;1.60;;;14.10;99.90;;;;;;4993471;28;20179;-82
2022/05/28 05:58:04;;;;;;;6.87;2.03;;;14.50;99.90;;;;;;4992707;28;20293;-82
2022/05/28 06:00:30;;;;;;;8.60;2.03;;;14.40;99.90;;;;;;4992955;28;20718;-82
2022/05/28 06:02:55;;;;;;;10.03;2.00;;;14.30;99.90;;;;;;4993490;28;20171;-83
2022/05/28 06:05:21;;;;;;;9.70;1.70;;;14.10;99.90;;;;;;4994071;28;20171;-82
2022/05/28 06:07:47;;;;;;;9.63;1.90;;;13.70;99.90;;;;;;4997855;28;20175;-82
2022/05/28 06:10:12;;;;;;;12.27;1.90;;;13.80;99.90;;;;;;4997132;28;20209;-82
2022/05/28 06:12:38;;;;;;;11.10;1.67;;;13.60;99.90;;;;;;4999125;28;20180;-81
2022/05/28 06:15:05;;;;;;;9.97;1.67;;;14.10;99.90;;;;;;4998214;28;20641;-82
2022/05/28 06:17:34;;;;;;;9.67;1.60;;;14.90;99.90;;;;;;4997749;28;20171;-82
2022/05/28 06:20:00;;;;;;;9.33;1.73;;;15.20;99.90;;;;;;4997236;28;20183;-83
2022/05/28 06:22:26;;;;;;;7.53;1.73;;;15.50;99.90;;;;;;4997027;28;20333;-83
2022/05/28 06:24:51;;;;;;;10.87;1.73;;;15.60;99.90;;;;;;4997930;28;20687;-83
2022/05/28 06:27:17;;;;;;;13.17;2.07;;;15.70;99.90;;;;;;4997840;28;20219;-82
2022/05/28 06:29:43;;;;;;;10.63;1.70;;;15.50;99.90;;;;;;4998313;28;20898;-82
2022/05/28 06:32:08;;;;;;;5.03;1.63;;;15.20;99.90;;;;;;4998819;28;20199;-82
2022/05/28 06:34:34;;;;;;;10.10;1.77;;;15.20;99.90;;;;;;4998026;28;20202;-82
2022/05/28 06:37:00;;;;;;;6.03;1.67;;;14.90;99.90;;;;;;4997346;28;20179;-82
2022/05/28 06:39:26;;;;;;;5.00;1.50;;;14.90;99.90;;;;;;4996979;28;20203;-82
2022/05/28 06:41:51;;;;;;;8.77;1.73;;;15.10;99.90;;;;;;4996751;28;20202;-82
2022/05/28 06:44:17;;;;;;;10.47;1.80;;;15.00;99.90;;;;;;4997472;28;20615;-82
2022/05/28 06:46:42;;;;;;;11.93;2.20;;;15.00;99.90;;;;;;4997148;28;20175;-82
2022/05/28 06:49:08;;;;;;;9.23;1.87;;;15.00;99.90;;;;;;4996614;28;20185;-82
2022/05/28 06:51:34;;;;;;;10.60;1.70;;;15.70;99.90;;;;;;4997612;28;20299;-82
2022/05/28 06:53:59;;;;;;;5.73;1.70;;;16.10;99.90;;;;;;4996399;28;20215;-81
2022/05/28 06:56:25;;;;;;;9.20;1.97;;;16.30;99.90;;;;;;4996718;28;20190;-82
2022/05/28 06:58:51;;;;;;;6.40;1.83;;;16.30;99.90;;;;;;4996112;28;20218;-82
2022/05/28 07:01:17;;;;;;;5.20;1.77;;;16.30;99.60;;;;;;4996926;28;20673;-82
2022/05/28 07:03:43;;;;;;;7.50;1.60;;;16.50;99.70;;;;;;4996688;28;20202;-82
2022/05/28 07:06:11;;;;;;;6.60;1.63;;;16.50;98.60;;;;;;4996004;28;20179;-82
2022/05/28 07:08:36;;;;;;;5.73;1.70;;;17.20;98.30;;;;;;4996566;28;20195;-82
2022/05/28 07:11:05;;;;;;;7.30;1.57;;;16.40;98.50;;;;;;4995604;28;20203;-82
2022/05/28 07:13:32;;;;;;;6.43;1.60;;;16.10;99.20;;;;;;4995183;28;20637;-81
2022/05/28 07:15:58;;;;;;;8.40;1.73;;;16.50;99.30;;;;;;4995209;28;20246;-81
2022/05/28 07:18:24;;;;;;;9.07;1.77;;;17.50;96.90;;;;;;4994720;28;20297;-81
2022/05/28 07:20:50;;;;;;;5.57;1.50;;;17.30;96.60;;;;;;4996527;28;20559;-82
2022/05/28 07:23:22;;;;;;;2.57;1.33;;;17.80;96.80;;;;;;4995735;28;20318;-80
2022/05/28 07:25:48;;;;;;;6.35;1.40;;;18.70;94.90;;;;;;4995659;28;20180;-81
2022/05/28 07:28:33;;;;;;;6.72;1.38;;;18.00;95.50;;;;;;4994996;28;20190;-82
2022/05/28 07:31:01;;;;;;;4.93;1.42;;;18.10;93.80;;;;;;4995263;28;20269;-82
2022/05/28 07:33:29;;;;;;;3.93;1.37;;;17.80;94.70;;;;;;4994788;28;20171;-81
2022/05/28 07:35:56;;;;;;;9.80;1.63;;;17.00;95.40;;;;;;4994873;28;20175;-82
2022/05/28 07:38:23;;;;;;;9.90;1.50;;;17.40;96.20;;;;;;4994890;28;20257;-82
2022/05/28 07:40:48;;;;;;;6.70;2.00;;;16.90;94.60;;;;;;4994933;28;20288;-81
2022/05/28 07:43:14;;;;;;;5.37;1.43;;;16.40;95.30;;;;;;4994374;28;20179;-81
2022/05/28 07:45:43;;;;;;;6.03;1.50;;;16.90;94.90;;;;;;4995110;28;20175;-82
2022/05/28 07:48:09;;;;;;;5.47;1.50;;;16.70;95.70;;;;;;4994571;28;20176;-81
2022/05/28 07:50:35;;;;;;;6.40;1.43;;;16.40;95.40;;;;;;4994191;28;20203;-80
2022/05/28 07:53:01;;;;;;;6.00;1.80;;;16.40;95.90;;;;;;4995328;28;20199;-82
2022/05/28 07:55:28;;;;;;;9.87;1.77;;;16.70;95.30;;;;;;4995493;28;20222;-81
2022/05/28 07:57:54;;;;;;;7.37;1.70;;;16.70;95.30;;;;;;4994887;28;20195;-82
2022/05/28 08:00:20;;;;;;;10.23;2.50;;;16.20;96.20;;;;;;4995633;28;20176;-81
2022/05/28 08:02:45;;;;;;;7.47;1.43;;;16.30;95.90;;;;;;4995965;28;20275;-81
2022/05/28 08:05:11;;;;;;;6.73;1.60;;;16.30;95.20;;;;;;4996378;28;20525;-81
2022/05/28 08:07:37;;;;;;;5.47;1.50;;;16.10;96.20;;;;;;4995319;28;20269;-81
2022/05/28 08:10:03;;;;;;;4.57;1.40;;;16.00;96.60;;;;;;4994344;28;20179;-81
2022/05/28 08:12:29;;;;;;;4.00;1.40;;;15.40;96.50;;;;;;4994887;28;20199;-81
2022/05/28 08:14:54;;;;;;;9.40;1.60;;;15.30;96.70;;;;;;4997073;28;20182;-82
2022/05/28 08:17:20;;;;;;;5.37;1.50;;;14.90;97.40;;;;;;4996943;28;20180;-81
2022/05/28 08:19:46;;;;;;;6.30;1.70;;;14.80;98.80;;;;;;4994909;28;20213;-81
2022/05/28 08:24:55;;;;;;;11.30;2.20;;;14.60;99.90;;;;;;4996732;28;20591;-82
2022/05/28 08:27:21;;;;;;;11.07;2.27;;;14.40;99.90;;;;;;4994737;28;20179;-80
2022/05/28 08:29:47;;;;;;;11.13;2.33;;;14.60;99.90;;;;;;4994356;28;20207;-81
2022/05/28 08:32:16;;;;;;;13.00;2.20;;;14.60;99.90;;;;;;4995098;28;20197;-81
2022/05/28 08:34:42;;;;;;;7.90;1.87;;;14.90;99.50;;;;;;4992356;28;20187;-81
2022/05/28 08:37:08;;;;;;;7.90;1.80;;;15.40;99.90;;;;;;4995005;28;20267;-81
2022/05/28 08:39:34;;;;;;;4.00;1.80;;;15.50;98.70;;;;;;4994142;28;20286;-81
2022/05/28 08:41:59;;;;;;;8.40;1.93;;;16.10;98.10;;;;;;4993438;28;20227;-81
2022/05/28 08:44:37;;;;;;;6.87;2.27;;;16.70;97.60;;;;;;4993859;28;20172;-81
2022/05/28 08:47:18;;;;;;;6.73;1.90;;;16.70;96.40;;;;;;4994337;28;20195;-81
2022/05/28 08:49:46;;;;;;;5.87;1.40;;;17.20;95.10;;;;;;4994292;28;20603;-81
2022/05/28 08:52:39;;;;;;;6.27;1.40;;;17.30;96.70;;;;;;4995068;28;20249;-81
2022/05/28 08:55:26;;;;;;;4.27;1.40;;;16.70;96.20;;;;;;4994790;28;20202;-83
2022/05/28 08:57:57;;;;;;;4.80;1.27;;;17.00;94.90;;;;;;4993617;28;20669;-82
2022/05/28 09:00:41;;;;;;;9.03;1.20;;;16.90;95.10;;;;;;4993636;28;20310;-81
2022/05/28 09:03:14;;;;;;;4.03;1.63;;;17.40;94.20;;;;;;4992813;28;20172;-82
2022/05/28 09:06:00;;;;;;;4.77;1.10;;;17.80;93.60;;;;;;4992992;28;20172;-81
2022/05/28 09:08:34;;;;;;;3.13;1.20;;;17.80;93.00;;;;;;4994113;28;20175;-81
2022/05/28 09:11:07;;;;;;;3.13;1.10;;;18.40;91.40;;;;;;4993110;28;20202;-81
2022/05/28 09:13:57;;;;;;;4.77;1.50;;;18.20;91.90;;;;;;4993507;28;20571;-81
2022/05/28 09:16:28;;;;;;;4.60;1.20;;;18.00;91.80;;;;;;4993087;28;20179;-82
2022/05/28 09:18:58;;;;;;;6.87;1.40;;;17.90;92.20;;;;;;4992700;28;20235;-81
2022/05/28 09:21:23;;;;;;;4.60;1.60;;;18.60;92.00;;;;;;4992665;28;20251;-81
2022/05/28 09:23:57;;;;;;;5.03;1.77;;;19.10;90.80;;;;;;4992809;28;20632;-81
2022/05/28 09:26:31;;;;;;;5.27;1.30;;;18.30;91.30;;;;;;4992377;28;20172;-82
2022/05/28 09:29:29;;;;;;;8.35;1.35;;;18.00;92.00;;;;;;4992391;28;20202;-82
2022/05/28 09:32:12;;;;;;;5.30;1.40;;;18.20;91.40;;;;;;4991678;28;20210;-81
2022/05/28 09:34:58;;;;;;;3.23;1.37;;;17.70;92.40;;;;;;4992884;28;20179;-81
2022/05/28 09:37:52;;;;;;;3.57;1.30;;;17.20;92.50;;;;;;4995714;28;20175;-81
2022/05/28 09:40:36;;;;;;;6.93;1.93;;;16.50;92.70;;;;;;4994082;28;20187;-81
2022/05/28 09:43:04;;;;;;;6.37;2.43;;;16.20;93.30;;;;;;4996086;28;20235;-81
2022/05/28 09:46:00;;;;;;;8.20;2.80;;;15.70;95.50;;;;;;4994916;28;20175;-81
2022/05/28 09:48:28;;;;;;;4.17;2.00;;;16.10;95.60;;;;;;4994105;28;20262;-81
2022/05/28 09:50:55;;;;;;;4.70;1.60;;;16.00;95.90;;;;;;4994148;28;20202;-81
2022/05/28 09:56:28;;;;;;;3.07;1.47;;;17.50;94.50;;;;;;4995921;28;20183;-81
2022/05/28 09:58:54;;;;;;;4.10;1.50;;;17.10;93.30;;;;;;4994322;28;20694;-81
2022/05/28 10:01:25;;;;;;;6.33;1.50;;;16.40;93.20;;;;;;4993752;28;20199;-81
2022/05/28 10:06:48;;;;;;;6.03;1.50;;;15.30;96.70;;;;;;4996300;28;20217;-81
2022/05/28 10:09:22;;;;;;;4.40;1.40;;;14.90;98.60;;;;;;4994265;28;20182;-81
2022/05/28 10:12:00;;;;;;;3.83;1.10;;;14.80;99.90;;;;;;4994416;28;20250;-81
2022/05/28 10:14:29;;;;;;;5.07;1.30;;;14.90;99.90;;;;;;4995133;28;20179;-81
2022/05/28 10:17:00;;;;;;;6.87;1.53;;;14.70;99.90;;;;;;4995088;28;20183;-81
2022/05/28 10:19:29;;;;;;;4.23;1.20;;;14.20;99.90;;;;;;4995154;28;20211;-81
2022/05/28 10:21:57;;;;;;;4.97;1.47;;;14.00;99.90;;;;;;4995073;28;20202;-81
2022/05/28 10:24:26;;;;;;;7.23;1.50;;;14.10;99.90;;;;;;4995775;28;20267;-80
2022/05/28 10:27:01;;;;;;;7.47;1.70;;;14.20;99.90;;;;;;4995114;28;20178;-81
2022/05/28 10:29:41;;;;;;;7.33;1.37;;;14.00;99.90;;;;;;4995348;28;20819;-81
2022/05/28 10:32:48;;;;;;;6.97;1.93;;;14.10;99.90;;;;;;4996005;28;20703;-81
2022/05/28 10:35:15;;;;;;;9.60;2.27;;;14.70;99.90;;;;;;4995707;28;20179;-81
2022/05/28 10:37:42;;;;;;;4.03;1.40;;;16.60;99.90;;;;;;4995912;28;20184;-81
2022/05/28 10:40:16;;;;;;;5.70;1.60;;;16.40;99.90;;;;;;4996549;28;20617;-81
2022/05/28 10:42:43;;;;;;;6.60;1.70;;;17.10;99.90;;;;;;4994408;28;20182;-82
2022/05/28 10:45:09;;;;;;;8.93;2.03;;;17.50;99.30;;;;;;4994803;28;20641;-81
2022/05/28 10:47:48;;;;;;;7.07;1.80;;;17.60;99.60;;;;;;4994216;28;20644;-82
2022/05/28 10:50:28;;;;;;;11.63;1.80;;;17.40;97.20;;;;;;4994612;28;20179;-81
2022/05/28 10:53:17;;;;;;;8.33;1.93;;;18.00;98.40;;;;;;4996169;28;20202;-81
2022/05/28 10:56:28;;;;;;;5.00;1.60;;;18.20;95.80;;;;;;4998721;28;20225;-82
2022/05/28 10:59:02;;;;;;;5.57;1.87;;;18.10;95.90;;;;;;4975811;28;20787;-81
2022/05/28 11:01:55;;;;;;;9.23;2.03;;;18.60;95.30;;;;;;4997193;28;20660;-82
2022/05/28 11:04:53;;;;;;;5.20;1.63;;;19.30;94.90;;;;;;4999024;28;20379;-82
2022/05/28 11:07:28;;;;;;;3.55;1.63;;;19.50;92.70;;;;;;4997889;28;20296;-81
2022/05/28 11:10:05;;;;;;;4.75;1.80;;;19.30;91.10;;;;;;4997640;28;20202;-81
2022/05/28 11:12:59;;;;;;;4.57;1.48;;;19.30;92.20;;;;;;4998675;28;20176;-82
2022/05/28 11:15:43;;;;;;;6.82;1.70;;;19.80;90.80;;;;;;4996052;28;20175;-81
2022/05/28 11:18:11;;;;;;;8.82;1.92;;;19.10;90.50;;;;;;4996072;28;20428;-81
2022/05/28 11:21:02;;;;;;;5.10;1.73;;;19.50;91.20;;;;;;4995370;28;20187;-81
2022/05/28 11:23:37;;;;;;;7.20;1.65;;;19.50;90.70;;;;;;4995024;28;20586;-81
2022/05/28 11:26:42;;;;;;;7.32;1.80;;;20.10;90.70;;;;;;4996225;28;20183;-81
2022/05/28 11:29:35;;;;;;;5.45;1.60;;;19.20;89.70;;;;;;4966615;28;20648;-81
2022/05/28 11:32:17;;;;;;;6.88;1.88;;;17.90;91.50;;;;;;4996888;28;20199;-81
2022/05/28 11:35:01;;;;;;;8.13;1.83;;;17.80;92.00;;;;;;4996698;28;20178;-81
2022/05/28 11:37:54;;;;;;;10.00;1.70;;;16.80;92.30;;;;;;4999419;28;20234;-81
2022/05/28 11:40:27;;;;;;;10.00;1.90;;;16.50;95.00;;;;;;4999538;28;20245;-80
2022/05/28 11:43:01;;;;;;;11.93;2.03;;;15.50;98.40;;;;;;4998083;28;20168;-79
2022/05/28 11:45:45;;;;;;;8.73;1.83;;;15.60;99.90;;;;;;4998554;28;20220;-80
2022/05/28 11:48:20;;;;;;;7.13;1.60;;;15.70;99.90;;;;;;4998316;28;20195;-80
2022/05/28 11:53:47;;;;;;;4.73;1.73;;;16.00;99.00;;;;;;4999974;28;20174;-80
2022/05/28 11:56:20;;;;;;;6.60;1.90;;;16.10;97.90;;;;;;4997374;28;20181;-80
2022/05/28 11:58:51;;;;;;;8.27;2.23;;;16.10;98.60;;;;;;4996523;28;20604;-80
2022/05/28 12:01:23;;;;;;;11.33;1.97;;;16.60;98.50;;;;;;4995983;28;20197;-80
2022/05/28 12:03:52;;;;;;;8.17;1.70;;;16.70;99.00;;;;;;4998417;28;20199;-81
2022/05/28 12:06:39;;;;;;;7.00;1.93;;;16.90;97.20;;;;;;4997002;28;20644;-80
2022/05/28 12:09:23;;;;;;;10.23;1.87;;;17.50;96.30;;;;;;4996884;28;20175;-81
2022/05/28 12:11:51;;;;;;;5.10;1.60;;;17.80;95.80;;;;;;4995738;28;20294;-81
2022/05/28 12:14:32;;;;;;;3.90;1.80;;;17.60;95.20;;;;;;4997231;28;20235;-80
2022/05/28 12:16:58;;;;;;;7.37;1.73;;;17.60;96.60;;;;;;4997264;28;20189;-81
2022/05/28 12:19:25;;;;;;;9.37;1.90;;;18.10;96.30;;;;;;4996506;28;20282;-80
2022/05/28 12:21:51;;;;;;;9.40;1.90;;;18.10;95.20;;;;;;4996895;28;20944;-80
2022/05/28 12:24:19;;;;;;;6.97;2.07;;;17.60;96.10;;;;;;4996503;28;20250;-81
2022/05/28 12:29:44;;;;;;;10.30;2.00;;;17.00;93.50;;;;;;4998844;28;20221;-80
2022/05/28 12:32:10;;;;;;;8.23;1.97;;;17.00;92.70;;;;;;4997833;28;20560;-80
2022/05/28 12:34:39;;;;;;;10.40;1.93;;;17.20;93.00;;;;;;4997286;28;20175;-80
2022/05/28 12:37:14;;;;;;;8.13;1.93;;;17.40;91.90;;;;;;4997076;28;20230;-81
2022/05/28 12:39:48;;;;;;;7.63;1.70;;;17.00;91.40;;;;;;4997287;28;20242;-80
2022/05/28 12:42:27;;;;;;;6.97;1.70;;;17.40;92.60;;;;;;5000094;28;20186;-81
2022/05/28 12:44:52;;;;;;;5.47;2.00;;;17.70;91.90;;;;;;4996726;28;20174;-81
2022/05/28 12:47:29;;;;;;;8.13;1.87;;;17.70;90.60;;;;;;4997095;28;20175;-80
2022/05/28 12:50:26;;;;;;;4.57;1.97;;;17.50;91.60;;;;;;4995857;28;20182;-80
2022/05/28 12:53:17;;;;;;;10.70;1.80;;;17.50;90.70;;;;;;4995836;28;20640;-81
2022/05/28 12:55:43;;;;;;;7.93;2.07;;;17.50;90.20;;;;;;4996510;28;20179;-81
2022/05/28 12:58:24;;;;;;;9.90;2.13;;;17.80;91.20;;;;;;4997976;28;20217;-80
2022/05/28 13:00:58;;;;;;;7.17;1.90;;;18.10;86.80;;;;;;4996605;28;20195;-81
2022/05/28 13:03:41;;;;;;;11.50;1.90;;;18.10;88.80;;;;;;4980217;28;20656;-81
2022/05/28 13:06:30;;;;;;;4.10;1.50;;;17.90;85.70;;;;;;4997097;28;20616;-81
2022/05/28 13:09:04;;;;;;;7.93;1.90;;;17.80;87.90;;;;;;4997235;28;20266;-80
2022/05/28 13:11:54;;;;;;;11.23;2.20;;;17.70;89.40;;;;;;4995896;28;20250;-81
2022/05/28 13:14:29;;;;;;;4.20;1.80;;;17.70;86.60;;;;;;4996028;28;20209;-81
2022/05/28 13:17:14;;;;;;;7.43;2.03;;;17.50;87.50;;;;;;4996866;28;20266;-81